Time;durP1;ratioP1;P1;durP2;ratioP2;P2;SDS_P1;SDS_P2;PMS_P1;PMS_P2;Temp;Humidity;BMP_temperature;BMP_pressure;BME280_temperature;BME280_humidity;BME280_pressure;Samples;Min_cycle;Max_cycle;Signal;HPM_P1;HPM_P2
2022/03/17 00:01:09;;;;;;;58.78;39.05;;;6.00;99.90;;;;;;6063744;23;20042;-89
2022/03/17 00:04:26;;;;;;;56.55;38.22;;;5.90;99.90;;;;;;6066102;23;20031;-90
2022/03/17 00:07:14;;;;;;;62.67;39.83;;;5.90;99.90;;;;;;6061022;23;20037;-89
2022/03/17 00:10:15;;;;;;;61.90;41.70;;;5.80;99.90;;;;;;6141796;23;20065;-89
2022/03/17 00:13:02;;;;;;;61.05;40.78;;;5.80;99.90;;;;;;6145386;23;20046;-90
2022/03/17 00:15:59;;;;;;;58.30;39.78;;;5.90;99.90;;;;;;6062693;23;20046;-90
2022/03/17 00:19:09;;;;;;;62.42;41.80;;;5.90;99.90;;;;;;6135260;23;20038;-88
2022/03/17 00:22:16;;;;;;;60.42;40.55;;;5.90;99.90;;;;;;6063805;23;20030;-88
2022/03/17 00:25:12;;;;;;;60.00;40.45;;;6.00;99.90;;;;;;6139379;23;20031;-88
2022/03/17 00:28:22;;;;;;;;;;;;;;;;;;;;;
2022/03/17 00:31:17;;;;;;;62.85;41.90;;;6.00;99.90;;;;;;6063839;23;20027;-88
2022/03/17 00:34:13;;;;;;;58.85;40.40;;;6.00;99.90;;;;;;6061751;23;20406;-87
2022/03/17 00:37:03;;;;;;;63.20;41.50;;;6.00;99.90;;;;;;6144714;23;20023;-89
2022/03/17 00:39:56;;;;;;;57.38;39.53;;;5.90;99.90;;;;;;6062902;23;20046;-88
2022/03/17 00:42:55;;;;;;;59.45;41.00;;;5.90;99.90;;;;;;6076712;23;20049;-88
2022/03/17 00:45:52;;;;;;;64.22;41.92;;;5.90;99.90;;;;;;6075442;23;20030;-86
2022/03/17 00:48:40;;;;;;;62.58;41.45;;;5.80;99.90;;;;;;6159472;23;20062;-88
2022/03/17 00:51:27;;;;;;;61.47;41.95;;;5.80;99.90;;;;;;6159423;23;20063;-88
2022/03/17 00:54:14;;;;;;;61.45;41.45;;;5.80;99.90;;;;;;6077179;23;20023;-89
2022/03/17 00:57:12;;;;;;;60.67;40.17;;;5.70;99.90;;;;;;6074029;23;20291;-89
2022/03/17 01:00:09;;;;;;;59.90;40.00;;;5.60;99.90;;;;;;6077888;23;20027;-89
2022/03/17 01:03:01;;;;;;;65.38;42.20;;;5.60;99.90;;;;;;6158508;23;20031;-89
2022/03/17 01:06:01;;;;;;;62.50;40.75;;;5.60;99.90;;;;;;6077792;23;20019;-87
2022/03/17 01:12:56;;;;;;;58.25;38.78;;;5.50;99.90;;;;;;6077029;23;20051;-88
2022/03/17 01:16:13;;;;;;;63.25;41.28;;;5.50;99.90;;;;;;6110613;23;20010;-87
2022/03/17 01:19:23;;;;;;;72.03;41.50;;;5.50;99.90;;;;;;6086320;23;20083;-88
2022/03/17 01:22:32;;;;;;;62.53;41.38;;;5.50;99.90;;;;;;6115995;23;20069;-83
2022/03/17 01:25:28;;;;;;;64.63;41.35;;;5.40;99.90;;;;;;6099956;23;20078;-84
2022/03/17 01:28:22;;;;;;;64.00;41.83;;;5.40;99.90;;;;;;6112905;23;20033;-83
2022/03/17 01:31:29;;;;;;;65.70;41.85;;;5.40;99.90;;;;;;6115544;23;20044;-87
2022/03/17 01:34:17;;;;;;;65.28;42.03;;;5.40;99.90;;;;;;6093217;23;20045;-83
2022/03/17 01:37:14;;;;;;;61.70;41.10;;;5.40;99.90;;;;;;6085294;23;20042;-85
2022/03/17 01:40:12;;;;;;;65.25;41.40;;;5.50;99.90;;;;;;6168709;23;20037;-84
2022/03/17 01:43:11;;;;;;;63.58;41.60;;;5.60;99.90;;;;;;6169987;23;20027;-86
2022/03/17 01:46:11;;;;;;;64.75;40.40;;;5.60;99.90;;;;;;6083710;23;20015;-83
2022/03/17 01:49:22;;;;;;;;;;;;;;;;;;;;;
2022/03/17 01:52:28;;;;;;;63.13;40.85;;;5.70;99.90;;;;;;6084346;23;20049;-81
2022/03/17 01:55:30;;;;;;;60.83;40.38;;;5.70;99.90;;;;;;6152519;23;20269;31
2022/03/17 01:58:29;;;;;;;61.20;40.97;;;5.70;99.90;;;;;;5983393;23;20076;-85
2022/03/17 02:06:28;;;;;;;60.70;38.92;;;5.70;99.90;;;;;;6135053;23;22462;-84
2022/03/17 02:13:17;;;;;;;60.45;40.00;;;5.70;99.90;;;;;;6237432;23;20012;-89
2022/03/17 02:18:59;;;;;;;60.65;40.47;;;5.80;99.90;;;;;;6122275;23;20034;-80
2022/03/17 02:22:42;;;;;;;67.50;43.85;;;5.80;99.90;;;;;;6157471;23;20023;-80
2022/03/17 02:25:39;;;;;;;60.80;41.33;;;5.80;99.90;;;;;;6122494;23;20114;-85
2022/03/17 02:32:43;;;;;;;60.67;41.10;;;5.80;99.90;;;;;;6148587;23;20030;-84
2022/03/17 02:35:33;;;;;;;65.45;41.45;;;5.80;99.90;;;;;;6146977;23;20014;-83
2022/03/17 02:38:38;;;;;;;64.18;42.40;;;5.80;99.90;;;;;;6149480;23;20014;-84
2022/03/17 02:41:44;;;;;;;62.22;41.55;;;5.90;99.90;;;;;;6149338;23;20014;-83
2022/03/17 02:44:41;;;;;;;64.10;41.45;;;5.90;99.90;;;;;;6146331;23;20014;-89
2022/03/17 02:47:31;;;;;;;63.50;42.58;;;6.00;99.90;;;;;;6147120;23;20030;-84
2022/03/17 02:50:27;;;;;;;59.53;40.00;;;6.00;99.90;;;;;;6146774;23;20028;-90
2022/03/17 02:57:00;;;;;;;58.83;39.20;;;6.00;99.90;;;;;;6129481;23;20457;-89
2022/03/17 02:59:54;;;;;;;60.67;40.55;;;6.00;99.90;;;;;;6133410;23;20077;-89
2022/03/17 03:02:44;;;;;;;59.47;39.83;;;5.90;99.90;;;;;;6136449;23;20082;-87
2022/03/17 03:05:47;;;;;;;62.15;41.65;;;5.90;99.90;;;;;;6136993;23;20042;-90
2022/03/17 03:08:41;;;;;;;64.20;41.40;;;5.90;99.90;;;;;;6137598;23;20051;-90
2022/03/17 03:11:35;;;;;;;62.47;41.65;;;5.90;99.90;;;;;;6137249;23;20026;-88
2022/03/17 03:14:30;;;;;;;60.25;39.70;;;5.90;99.90;;;;;;6124604;23;20081;-90
2022/03/17 03:17:30;;;;;;;66.78;40.67;;;5.90;99.90;;;;;;6122684;23;20022;-89
2022/03/17 03:20:33;;;;;;;59.58;38.65;;;5.90;99.90;;;;;;6124204;23;20118;-89
2022/03/17 03:23:28;;;;;;;58.92;39.15;;;5.80;99.90;;;;;;6125979;23;20041;-86
2022/03/17 03:26:17;;;;;;;61.30;38.15;;;5.80;99.90;;;;;;6128052;23;20366;-88
2022/03/17 03:29:16;;;;;;;;;;;;;;;;;;;;;
2022/03/17 03:32:13;;;;;;;62.20;39.65;;;5.60;99.90;;;;;;6169162;23;20080;-90
2022/03/17 03:37:22;;;;;;;59.15;39.38;;;5.60;99.90;;;;;;6169221;23;20037;-89
2022/03/17 03:38:19;;;;;;;58.20;38.08;;;5.60;99.90;;;;;;6165365;23;20037;-90
2022/03/17 03:41:14;;;;;;;48.05;30.98;;;5.50;99.90;;;;;;6133573;23;20040;-88
2022/03/17 03:44:12;;;;;;;67.90;41.38;;;5.50;99.90;;;;;;6156537;23;20061;-88
2022/03/17 03:47:14;;;;;;;62.83;40.05;;;5.50;99.90;;;;;;6157044;23;20025;-87
2022/03/17 03:50:03;;;;;;;61.97;39.42;;;5.50;99.90;;;;;;6159270;23;20409;-87
2022/03/17 03:53:00;;;;;;;62.30;40.33;;;5.50;99.90;;;;;;6154063;23;20032;-91
2022/03/17 03:55:57;;;;;;;;;;;;;;;;;;;;;
2022/03/17 03:59:20;;;;;;;62.15;40.30;;;5.40;99.90;;;;;;6153878;23;20013;-89
2022/03/17 04:02:32;;;;;;;60.50;38.78;;;5.40;99.90;;;;;;6138903;23;20040;-90
2022/03/17 04:05:33;;;;;;;69.75;43.63;;;5.40;99.90;;;;;;6134815;23;20057;-88
2022/03/17 04:08:29;;;;;;;71.55;43.28;;;5.40;99.90;;;;;;6154265;23;20109;-87
2022/03/17 04:11:17;;;;;;;71.88;45.15;;;5.50;99.90;;;;;;6155238;23;20029;-89
2022/03/17 04:14:27;;;;;;;77.22;47.75;;;5.70;99.90;;;;;;6154772;23;20401;-88
2022/03/17 04:17:18;;;;;;;77.75;48.80;;;5.90;99.90;;;;;;6134575;23;20032;-89
2022/03/17 04:20:16;;;;;;;70.05;45.72;;;6.00;99.90;;;;;;6135834;23;20025;-89
2022/03/17 04:23:03;;;;;;;73.70;47.15;;;6.20;99.90;;;;;;6133076;23;20089;-90
2022/03/17 04:26:14;;;;;;;71.07;44.97;;;6.20;99.90;;;;;;6151679;23;20100;-88
2022/03/17 04:29:14;;;;;;;70.75;44.88;;;6.30;99.90;;;;;;6153836;23;20080;-89
2022/03/17 04:32:02;;;;;;;67.28;42.83;;;6.30;99.90;;;;;;6132084;23;20066;-89
2022/03/17 04:34:59;;;;;;;74.45;45.65;;;6.30;99.90;;;;;;6153678;23;20121;-89
2022/03/17 04:37:49;;;;;;;72.93;48.42;;;6.30;99.90;;;;;;6134232;23;20021;-88
2022/03/17 04:40:49;;;;;;;69.65;44.33;;;6.40;99.90;;;;;;6136744;23;20033;-90
2022/03/17 04:43:56;;;;;;;74.28;46.50;;;6.40;99.90;;;;;;6118753;23;20037;-88
2022/03/17 04:46:55;;;;;;;70.65;45.90;;;6.40;99.90;;;;;;6156574;23;20494;-88
2022/03/17 04:50:03;;;;;;;71.30;45.08;;;6.40;99.90;;;;;;6154018;23;20040;-89
2022/03/17 04:56:28;;;;;;;76.22;48.50;;;6.40;99.90;;;;;;6154911;23;20032;-90
2022/03/17 04:59:20;;;;;;;73.32;45.38;;;6.40;99.90;;;;;;6160019;23;20341;-90
2022/03/17 05:05:49;;;;;;;74.88;47.42;;;6.30;99.90;;;;;;6144796;23;20033;-86
2022/03/17 05:08:48;;;;;;;73.60;45.88;;;6.30;99.90;;;;;;6159761;23;20029;-89
2022/03/17 05:12:19;;;;;;;71.40;45.35;;;6.20;99.90;;;;;;6136752;23;20424;-89
2022/03/17 05:15:29;;;;;;;74.45;47.28;;;6.10;99.90;;;;;;6152966;23;20053;-88
2022/03/17 05:23:47;;;;;;;71.00;45.83;;;6.00;99.90;;;;;;6008951;23;20258;-84
2022/03/17 05:26:33;;;;;;;51.50;34.80;;;5.90;99.90;;;;;;6094046;23;20018;-84
2022/03/17 05:29:25;;;;;;;59.05;37.95;;;5.80;99.90;;;;;;6155328;23;20035;-83
2022/03/17 05:32:17;;;;;;;62.05;39.15;;;5.70;99.90;;;;;;6151776;23;20029;-83
2022/03/17 05:35:05;;;;;;;73.25;45.90;;;5.70;99.90;;;;;;6151376;23;20121;-83
2022/03/17 05:38:00;;;;;;;77.50;47.53;;;5.70;99.90;;;;;;6154339;23;20025;-84
2022/03/17 05:40:47;;;;;;;76.75;49.28;;;5.70;99.90;;;;;;6130866;23;20100;-83
2022/03/17 05:43:35;;;;;;;75.82;48.17;;;5.70;99.90;;;;;;6151823;23;20041;-84
2022/03/17 05:46:27;;;;;;;82.20;50.05;;;5.80;99.90;;;;;;6153233;23;20044;-82
2022/03/17 05:49:14;;;;;;;80.13;51.47;;;5.80;99.90;;;;;;6153001;23;20048;-85
2022/03/17 05:52:02;;;;;;;80.40;50.78;;;5.90;99.90;;;;;;6155015;23;20036;-85
2022/03/17 05:54:49;;;;;;;78.40;48.92;;;6.00;99.90;;;;;;6154598;23;20389;-88
2022/03/17 05:57:40;;;;;;;73.97;45.88;;;6.10;99.90;;;;;;6131943;23;20026;-85
2022/03/17 06:00:31;;;;;;;65.65;42.67;;;6.10;99.90;;;;;;6134204;23;20127;-86
2022/03/17 06:03:23;;;;;;;70.28;43.90;;;6.00;99.90;;;;;;6155895;23;20133;-88
2022/03/17 06:06:13;;;;;;;61.80;41.60;;;5.90;99.90;;;;;;6159756;23;20037;-89
2022/03/17 06:09:03;;;;;;;64.35;41.88;;;5.80;99.90;;;;;;6157133;23;20030;-90
2022/03/17 06:11:50;;;;;;;61.78;39.13;;;5.70;99.90;;;;;;6134787;23;20487;-88
2022/03/17 06:14:45;;;;;;;74.72;45.90;;;5.60;99.90;;;;;;6136293;23;20041;-88
2022/03/17 06:17:48;;;;;;;79.18;47.28;;;5.60;99.90;;;;;;6155076;23;20037;-87
2022/03/17 06:21:03;;;;;;;81.25;51.40;;;5.70;99.90;;;;;;6157855;23;20388;-88
2022/03/17 06:24:05;;;;;;;80.07;49.78;;;5.70;99.90;;;;;;6156291;23;20057;-88
2022/03/17 06:26:59;;;;;;;78.30;49.55;;;5.80;99.90;;;;;;6137473;23;20032;-88
2022/03/17 06:29:55;;;;;;;85.22;54.72;;;5.90;99.90;;;;;;6137923;23;20029;-87
2022/03/17 06:32:43;;;;;;;66.28;43.60;;;6.00;99.90;;;;;;6156113;23;20088;-88
2022/03/17 06:35:33;;;;;;;73.53;46.13;;;6.10;99.90;;;;;;6134688;23;20033;-88
2022/03/17 06:38:25;;;;;;;75.43;47.08;;;6.10;99.90;;;;;;6157515;23;20462;-86
2022/03/17 06:41:14;;;;;;;78.70;49.58;;;6.10;99.90;;;;;;6117185;23;20026;-88
2022/03/17 06:44:01;;;;;;;80.60;49.38;;;6.20;99.90;;;;;;6135191;23;20416;-88
2022/03/17 06:46:53;;;;;;;77.57;47.58;;;6.30;99.90;;;;;;6158672;23;20027;-87
2022/03/17 06:49:40;;;;;;;78.20;49.53;;;6.40;99.90;;;;;;6158177;23;20088;-86
2022/03/17 06:52:45;;;;;;;78.88;49.50;;;6.40;99.90;;;;;;6157500;23;20026;-86
2022/03/17 06:55:35;;;;;;;77.22;48.70;;;6.60;99.90;;;;;;6156663;23;20021;-88
2022/03/17 06:58:22;;;;;;;73.45;47.72;;;6.70;99.90;;;;;;6165285;23;20033;-85
2022/03/17 07:01:14;;;;;;;75.00;49.20;;;6.80;99.90;;;;;;6146297;23;20029;-85
2022/03/17 07:04:07;;;;;;;71.97;46.38;;;6.80;99.90;;;;;;6155530;23;20536;-85
2022/03/17 07:06:54;;;;;;;55.37;35.73;;;6.90;99.90;;;;;;6131078;23;20033;-85
2022/03/17 07:09:43;;;;;;;69.22;44.47;;;7.00;99.90;;;;;;6154147;23;20030;-85
2022/03/17 07:12:32;;;;;;;70.60;44.88;;;7.10;99.90;;;;;;6134300;23;20045;-87
2022/03/17 07:15:22;;;;;;;66.28;43.58;;;7.10;99.90;;;;;;6154444;23;20375;-86
2022/03/17 07:18:09;;;;;;;65.72;43.97;;;7.20;99.90;;;;;;6133733;23;20175;-86
2022/03/17 07:20:59;;;;;;;69.93;43.08;;;7.30;99.90;;;;;;6156326;23;20041;-85
2022/03/17 07:23:47;;;;;;;63.38;40.65;;;7.30;99.90;;;;;;6154181;23;20211;-86
2022/03/17 07:26:34;;;;;;;62.92;42.55;;;7.30;99.90;;;;;;6152666;23;20040;-87
2022/03/17 07:29:24;;;;;;;65.05;41.90;;;7.20;99.90;;;;;;6132378;23;20040;-87
2022/03/17 07:32:16;;;;;;;66.95;43.05;;;7.20;99.90;;;;;;6133470;23;20038;-86
2022/03/17 07:35:05;;;;;;;66.28;44.63;;;7.30;99.90;;;;;;6155006;23;20060;-86
2022/03/17 07:37:58;;;;;;;65.57;41.58;;;7.30;99.90;;;;;;6152001;23;20123;-85
2022/03/17 07:40:48;;;;;;;;;;;7.30;99.90;;;;;;6133370;23;20036;-85
2022/03/17 07:43:35;;;;;;;66.60;42.92;;;7.30;99.90;;;;;;6152322;23;19932;-86
2022/03/17 07:46:23;;;;;;;64.72;41.33;;;7.40;99.90;;;;;;6154407;23;20033;-86
2022/03/17 07:53:21;;;;;;;67.43;43.10;;;7.40;99.90;;;;;;6152906;23;20009;-85
2022/03/17 07:56:18;;;;;;;61.20;42.20;;;7.40;99.90;;;;;;6154666;23;20105;-86
2022/03/17 07:59:21;;;;;;;66.22;42.17;;;7.40;99.90;;;;;;6154256;23;20456;-88
2022/03/17 08:20:45;;;;;;;57.10;37.90;;;8.10;99.90;;;;;;6020724;23;20090;-84
2022/03/17 08:23:37;;;;;;;59.08;39.97;;;8.20;99.90;;;;;;6095877;23;20038;-85
2022/03/17 08:26:29;;;;;;;59.80;38.65;;;8.20;99.90;;;;;;6085342;23;20400;-85
2022/03/17 08:29:16;;;;;;;59.17;39.15;;;8.30;99.90;;;;;;6090053;23;20080;-85
2022/03/17 08:32:08;;;;;;;58.67;39.13;;;8.30;99.90;;;;;;6088467;23;20092;-86
2022/03/17 08:35:00;;;;;;;60.55;38.67;;;8.30;99.90;;;;;;6093126;23;20022;-85
2022/03/17 08:37:52;;;;;;;59.10;39.95;;;8.40;99.90;;;;;;6090848;23;20023;-83
2022/03/17 08:40:43;;;;;;;61.83;40.50;;;8.40;99.90;;;;;;6089381;23;20026;-87
2022/03/17 08:43:30;;;;;;;60.20;39.38;;;8.50;99.90;;;;;;6087786;23;20410;-85
2022/03/17 08:49:24;;;;;;;71.78;43.03;;;8.70;99.90;;;;;;6090526;23;20042;-86
2022/03/17 08:52:14;;;;;;;61.25;40.60;;;8.80;99.90;;;;;;6091712;23;20124;-86
2022/03/17 08:55:24;;;;;;;60.15;39.80;;;8.80;99.90;;;;;;6030495;23;20037;-84
2022/03/17 08:58:25;;;;;;;61.28;42.03;;;8.90;99.90;;;;;;6030735;23;20019;-87
2022/03/17 09:04:52;;;;;;;61.47;41.30;;;9.00;99.90;;;;;;6030146;23;20015;-86
2022/03/17 09:08:01;;;;;;;59.90;40.88;;;9.10;99.90;;;;;;6012617;23;20042;-85
2022/03/17 09:10:58;;;;;;;62.83;41.15;;;9.30;99.90;;;;;;6030520;23;20046;-86
2022/03/17 09:14:00;;;;;;;59.80;40.50;;;9.30;99.90;;;;;;6012571;23;20035;-85
2022/03/17 09:20:56;;;;;;;57.30;38.13;;;9.60;99.90;;;;;;6031816;23;20022;-85
2022/03/17 09:28:07;;;;;;;54.60;38.05;;;9.60;99.90;;;;;;6180338;23;20143;-83
2022/03/17 09:30:55;;;;;;;57.80;40.05;;;9.80;99.90;;;;;;6151534;23;20059;-84
2022/03/17 09:33:50;;;;;;;61.47;40.58;;;9.70;99.90;;;;;;6090469;23;20026;-82
2022/03/17 09:36:40;;;;;;;58.25;39.08;;;9.70;99.90;;;;;;6090187;23;20132;-83
2022/03/17 09:39:49;;;;;;;59.72;38.80;;;9.80;99.90;;;;;;6088849;23;20038;-83
2022/03/17 09:55:04;;;;;;;65.15;41.53;;;9.80;99.90;;;;;;6089834;23;20026;-84
2022/03/17 09:57:53;;;;;;;63.42;41.88;;;9.80;99.90;;;;;;6093196;23;20046;-84
2022/03/17 10:00:52;;;;;;;62.88;42.92;;;9.70;99.90;;;;;;6089602;23;20034;-87
2022/03/17 10:04:08;;;;;;;;;;;9.70;99.90;;;;;;6088890;23;20103;-85
2022/03/17 10:07:04;;;;;;;64.57;42.58;;;9.60;99.90;;;;;;6088497;23;19921;-84
2022/03/17 11:09:56;;;;;;;42.67;28.58;;;11.50;99.90;;;;;;6065675;23;20034;-88
2022/03/17 11:13:49;;;;;;;;;;;;;;;;;;;;;
2022/03/17 11:17:35;;;;;;;46.65;29.13;;;11.50;99.90;;;;;;6125698;23;20329;-87
2022/03/17 11:41:09;;;;;;;54.20;32.50;;;11.20;99.90;;;;;;6127732;23;20009;-88
2022/03/17 11:44:35;;;;;;;53.05;32.83;;;11.20;99.90;;;;;;6104904;23;20070;-89
2022/03/17 11:47:30;;;;;;;53.00;32.83;;;11.10;99.90;;;;;;6066615;23;20023;-87
2022/03/17 11:50:41;;;;;;;68.03;34.85;;;11.10;99.90;;;;;;6067225;23;20030;-88
2022/03/17 11:53:44;;;;;;;55.08;34.22;;;11.00;99.90;;;;;;6149984;23;20026;-87
2022/03/17 11:56:47;;;;;;;56.05;34.28;;;11.10;99.90;;;;;;6065465;23;20497;-88
2022/03/17 12:00:44;;;;;;;53.95;33.08;;;11.10;99.90;;;;;;5068951;27;20470;-88
2022/03/17 12:03:42;;;;;;;59.35;35.72;;;11.10;99.90;;;;;;5029222;28;20140;-87
2022/03/17 12:06:39;;;;;;;59.78;36.33;;;11.10;99.90;;;;;;5026269;28;20091;-87
2022/03/17 12:09:37;;;;;;;59.60;37.80;;;11.10;99.90;;;;;;5045838;28;20050;-85
2022/03/17 12:12:29;;;;;;;58.75;35.53;;;11.00;99.90;;;;;;5030744;28;20050;-84
2022/03/17 12:15:39;;;;;;;63.95;37.47;;;10.90;99.90;;;;;;5042397;28;20431;-85
2022/03/17 12:19:04;;;;;;;61.80;38.30;;;10.90;99.90;;;;;;5030103;28;20049;-84
2022/03/17 12:22:11;;;;;;;;;;;;;;;;;;;;;
2022/03/17 12:25:18;;;;;;;64.65;39.28;;;11.00;99.90;;;;;;5131622;27;20124;-88
2022/03/17 12:28:29;;;;;;;70.72;42.25;;;10.90;99.90;;;;;;5113373;28;20070;-86
2022/03/17 12:31:17;;;;;;;70.00;44.53;;;10.80;99.90;;;;;;5119707;27;20047;-87
2022/03/17 12:34:19;;;;;;;74.93;45.17;;;10.80;99.90;;;;;;5135113;27;20051;-84
2022/03/17 12:37:10;;;;;;;73.97;44.38;;;10.90;99.90;;;;;;5126542;27;20191;-86
2022/03/17 12:40:04;;;;;;;72.15;44.67;;;11.00;99.90;;;;;;5121082;28;20548;-88
2022/03/17 12:43:18;;;;;;;80.40;46.70;;;11.00;99.90;;;;;;5123947;27;20071;-88
2022/03/17 12:46:16;;;;;;;71.18;44.25;;;10.90;99.90;;;;;;5134239;28;20149;-87
2022/03/17 12:49:09;;;;;;;75.38;47.15;;;10.90;99.90;;;;;;5122515;27;20198;-88
2022/03/17 12:52:11;;;;;;;69.45;45.47;;;10.80;99.90;;;;;;5121654;27;20055;-83
2022/03/17 12:55:01;;;;;;;77.03;48.30;;;10.80;99.90;;;;;;5114981;27;20055;-84
2022/03/17 12:57:56;;;;;;;75.03;45.60;;;10.70;99.90;;;;;;5125282;28;20054;-85
2022/03/17 13:00:48;;;;;;;76.15;46.13;;;10.80;99.90;;;;;;5107936;27;20050;-84
2022/03/17 13:03:40;;;;;;;;;;;10.80;99.90;;;;;;5115238;28;20044;-88
2022/03/17 13:09:40;;;;;;;76.35;47.90;;;10.80;99.90;;;;;;5125993;27;20072;-87
2022/03/17 13:15:49;;;;;;;77.72;49.13;;;10.70;99.90;;;;;;5108206;27;20789;-88
2022/03/17 13:18:54;;;;;;;76.43;49.42;;;10.70;99.90;;;;;;5117395;27;20452;-85
2022/03/17 15:31:25;;;;;;;60.25;42.25;;;9.70;99.90;;;;;;5267446;23;20284;-86
2022/03/17 15:34:13;;;;;;;61.47;41.03;;;9.70;99.90;;;;;;4949115;28;20055;-86
2022/03/17 15:37:11;;;;;;;64.25;42.33;;;9.70;99.90;;;;;;4954611;29;20438;-88
2022/03/17 15:39:59;;;;;;;58.90;41.58;;;9.60;99.90;;;;;;4952264;29;20066;-88
2022/03/17 15:42:48;;;;;;;60.92;43.25;;;9.70;99.90;;;;;;4939496;29;20453;-87
2022/03/17 15:45:42;;;;;;;58.20;41.10;;;9.70;99.90;;;;;;4959110;28;20150;-89
2022/03/17 15:48:32;;;;;;;65.40;41.90;;;9.70;99.90;;;;;;4949039;29;20047;-89
2022/03/17 15:51:19;;;;;;;61.08;41.97;;;9.70;99.90;;;;;;4955935;28;20544;-88
2022/03/17 15:54:07;;;;;;;59.40;40.53;;;9.80;99.90;;;;;;4956358;29;20051;-88
2022/03/17 15:56:54;;;;;;;68.13;43.95;;;9.80;99.90;;;;;;4953341;29;20134;-86
2022/03/17 15:59:41;;;;;;;68.03;43.03;;;9.70;99.90;;;;;;4939200;29;20062;-89
2022/03/17 16:02:31;;;;;;;60.42;41.80;;;9.70;99.90;;;;;;4953042;28;20059;-87
2022/03/17 16:05:19;;;;;;;67.05;43.67;;;9.70;99.90;;;;;;4953494;29;20043;-87
2022/03/17 16:08:07;;;;;;;66.50;44.33;;;9.60;99.90;;;;;;4940061;29;20047;-88
2022/03/17 16:17:09;;;;;;;69.30;44.25;;;9.40;99.90;;;;;;4953201;28;20092;-89
2022/03/17 16:19:59;;;;;;;70.38;45.40;;;9.40;99.90;;;;;;4936935;29;20107;-90
2022/03/17 16:22:46;;;;;;;70.70;45.92;;;9.40;99.90;;;;;;4952554;29;20064;-88
2022/03/17 16:25:34;;;;;;;72.88;45.83;;;9.30;99.90;;;;;;4954575;29;20058;-88
2022/03/17 16:28:24;;;;;;;70.22;45.55;;;9.30;99.90;;;;;;4940241;29;20051;-89
2022/03/17 16:31:20;;;;;;;70.63;44.63;;;9.30;99.90;;;;;;4951338;29;20040;-86
2022/03/17 16:34:13;;;;;;;69.00;44.92;;;9.20;99.90;;;;;;4949907;29;20456;-87
2022/03/17 16:37:04;;;;;;;72.25;46.88;;;9.20;99.90;;;;;;4947544;28;20047;-87
2022/03/17 16:39:53;;;;;;;64.18;44.25;;;9.10;99.90;;;;;;4944565;29;20191;-87
2022/03/17 16:42:41;;;;;;;71.30;45.40;;;9.00;99.90;;;;;;4953939;28;20047;-87
2022/03/17 16:45:31;;;;;;;71.10;45.35;;;8.90;99.90;;;;;;4950721;28;20043;-86
2022/03/17 16:48:19;;;;;;;69.45;44.17;;;8.90;99.90;;;;;;4941698;29;20083;-87
2022/03/17 16:51:09;;;;;;;71.70;45.97;;;8.90;99.90;;;;;;4954840;29;20087;-87
2022/03/17 16:53:59;;;;;;;70.47;46.95;;;8.80;99.90;;;;;;4952754;28;20047;-86
2022/03/17 16:56:50;;;;;;;71.03;45.35;;;8.80;99.90;;;;;;4953544;28;20330;-86
2022/03/17 16:59:40;;;;;;;65.38;43.67;;;8.80;99.90;;;;;;4939246;29;20076;-85
2022/03/17 17:02:27;;;;;;;69.28;45.22;;;8.70;99.90;;;;;;4956760;28;20051;-85
2022/03/17 17:05:17;;;;;;;73.60;47.15;;;8.60;99.90;;;;;;4959543;28;20338;-86
2022/03/17 17:08:09;;;;;;;70.43;46.15;;;8.60;99.90;;;;;;4957681;28;20058;-85
2022/03/17 17:10:57;;;;;;;70.45;44.90;;;8.70;99.90;;;;;;4946203;29;20334;-84
2022/03/17 17:13:47;;;;;;;79.38;49.83;;;8.60;99.90;;;;;;4955814;29;20099;-86
2022/03/17 17:16:49;;;;;;;80.00;48.57;;;8.50;99.90;;;;;;4940370;29;20180;-85
2022/03/17 17:19:37;;;;;;;71.18;47.63;;;8.50;99.90;;;;;;4954691;28;20283;-85
2022/03/17 17:22:25;;;;;;;77.28;45.80;;;8.40;99.90;;;;;;4946388;29;20054;-86
2022/03/17 17:31:26;;;;;;;76.55;47.25;;;8.30;99.90;;;;;;4958521;28;20145;-87
2022/03/17 17:34:14;;;;;;;74.63;47.13;;;8.30;99.90;;;;;;4949853;29;20070;-87
2022/03/17 17:37:03;;;;;;;74.13;47.47;;;8.30;99.90;;;;;;4945170;29;20096;-86
2022/03/17 17:39:51;;;;;;;76.78;48.70;;;8.20;99.90;;;;;;4948377;28;20373;-86
2022/03/17 17:42:42;;;;;;;75.80;47.88;;;8.20;99.90;;;;;;4944805;29;20202;-84
2022/03/17 17:45:29;;;;;;;70.13;46.25;;;8.10;99.90;;;;;;4956313;29;20154;-84
2022/03/17 17:48:17;;;;;;;77.45;48.03;;;8.20;99.90;;;;;;4948915;28;20148;-84
2022/03/17 17:51:08;;;;;;;75.30;47.28;;;8.10;99.90;;;;;;4956779;28;20106;-84
2022/03/17 17:54:01;;;;;;;73.07;46.40;;;8.10;99.90;;;;;;4952012;28;20044;-85
2022/03/17 17:56:49;;;;;;;79.20;49.15;;;8.10;99.90;;;;;;4952912;28;20061;-88
2022/03/17 17:59:37;;;;;;;72.65;47.40;;;8.10;99.90;;;;;;4934720;29;20390;-87
2022/03/17 18:02:25;;;;;;;79.50;47.05;;;8.10;99.90;;;;;;4959584;28;20470;-87
2022/03/17 18:05:15;;;;;;;81.05;47.83;;;8.00;99.90;;;;;;4958872;29;20047;-87
2022/03/17 18:08:03;;;;;;;86.70;49.70;;;7.90;99.90;;;;;;4959049;29;20123;-87
2022/03/17 18:10:52;;;;;;;82.05;46.38;;;7.90;99.90;;;;;;4954280;28;20084;-87
2022/03/17 18:13:45;;;;;;;76.82;46.50;;;7.90;99.90;;;;;;4953765;29;20150;-88
2022/03/17 18:16:41;;;;;;;74.90;46.70;;;7.90;99.90;;;;;;4942421;29;20058;-88
2022/03/17 18:19:36;;;;;;;76.82;47.67;;;7.90;99.90;;;;;;4958359;28;20161;-87
2022/03/17 18:22:24;;;;;;;75.60;46.90;;;7.80;99.90;;;;;;4944545;28;20074;-86
2022/03/17 18:25:12;;;;;;;78.30;46.92;;;7.80;99.90;;;;;;4944829;29;20058;-85
2022/03/17 18:28:00;;;;;;;78.78;47.33;;;7.70;99.90;;;;;;4942945;29;20388;-87
2022/03/17 18:30:53;;;;;;;80.85;47.17;;;7.70;99.90;;;;;;4965646;28;20058;-85
2022/03/17 18:33:49;;;;;;;74.28;46.38;;;7.80;99.90;;;;;;4966130;28;20051;-84
2022/03/17 18:36:37;;;;;;;76.28;47.65;;;7.70;99.90;;;;;;4953925;28;20126;-84
2022/03/17 18:39:25;;;;;;;76.47;47.00;;;7.70;99.90;;;;;;4951805;28;20063;-83
2022/03/17 18:42:13;;;;;;;78.60;47.15;;;7.70;99.90;;;;;;4954369;29;20043;-83
2022/03/17 18:45:01;;;;;;;81.10;49.75;;;7.70;99.90;;;;;;4955736;28;20057;-84
2022/03/17 18:47:49;;;;;;;83.45;51.20;;;7.70;99.90;;;;;;4940070;29;20055;-83
2022/03/17 18:50:36;;;;;;;89.95;54.17;;;7.60;99.90;;;;;;4951171;29;20357;-83
2022/03/17 18:53:24;;;;;;;82.40;50.30;;;7.60;99.90;;;;;;4923286;29;20047;-83
2022/03/17 18:56:17;;;;;;;80.43;49.88;;;7.60;99.90;;;;;;4954412;28;20349;-84
2022/03/17 18:59:07;;;;;;;86.38;53.15;;;7.60;99.90;;;;;;4930887;29;20047;-86
2022/03/17 19:01:56;;;;;;;83.00;52.72;;;7.50;99.90;;;;;;4957517;29;20051;-86
2022/03/17 19:04:46;;;;;;;92.57;57.15;;;7.50;99.90;;;;;;4961612;29;20095;-87
2022/03/17 19:07:37;;;;;;;89.80;55.05;;;7.50;99.90;;;;;;4965097;28;20163;-87
2022/03/17 19:10:25;;;;;;;90.03;53.85;;;7.40;99.90;;;;;;4950740;28;20083;-84
2022/03/17 19:13:19;;;;;;;96.75;58.85;;;7.40;99.90;;;;;;4963924;29;20062;-86
2022/03/17 19:16:07;;;;;;;100.57;59.17;;;7.30;99.90;;;;;;4949071;29;20558;-84
2022/03/17 19:19:07;;;;;;;107.25;59.45;;;7.40;99.90;;;;;;4948139;28;20122;-83
2022/03/17 19:21:56;;;;;;;102.32;58.33;;;7.30;99.90;;;;;;4956958;28;20102;-87
2022/03/17 19:24:44;;;;;;;109.43;64.15;;;7.30;99.90;;;;;;4960108;28;20054;-87
2022/03/17 19:27:33;;;;;;;107.32;61.05;;;7.20;99.90;;;;;;4952876;28;20051;-85
2022/03/17 19:30:20;;;;;;;115.40;62.95;;;7.20;99.90;;;;;;4948003;29;20047;-85
2022/03/17 19:33:09;;;;;;;113.82;63.42;;;7.10;99.90;;;;;;4945778;28;20051;-85
2022/03/17 19:35:57;;;;;;;119.13;65.95;;;7.10;99.90;;;;;;4957525;28;20058;-87
2022/03/17 19:38:46;;;;;;;118.72;65.72;;;7.10;99.90;;;;;;4952763;28;20335;-85
2022/03/17 19:41:41;;;;;;;121.65;66.50;;;7.00;99.90;;;;;;4951323;28;20057;-85
2022/03/17 19:44:33;;;;;;;127.53;68.38;;;7.00;99.90;;;;;;4950041;29;20043;-86
2022/03/17 19:47:29;;;;;;;125.93;70.68;;;6.90;99.90;;;;;;4948562;29;20425;-87
2022/03/17 19:53:35;;;;;;;129.90;68.07;;;6.90;99.90;;;;;;4959847;29;20059;-86
2022/03/17 19:56:25;;;;;;;134.93;70.18;;;6.90;99.90;;;;;;4955051;28;20082;-87
2022/03/17 19:59:16;;;;;;;132.88;69.90;;;6.90;99.90;;;;;;4952388;29;20468;-86
2022/03/17 20:02:06;;;;;;;140.55;74.28;;;6.80;99.90;;;;;;4947970;29;20142;-88
2022/03/17 20:05:16;;;;;;;142.73;74.47;;;6.80;99.90;;;;;;4948175;29;20047;-85
2022/03/17 20:08:05;;;;;;;142.10;75.10;;;6.80;99.90;;;;;;4947212;29;20055;-85
2022/03/17 20:14:01;;;;;;;153.52;76.35;;;6.80;99.90;;;;;;4953976;28;20107;-85
2022/03/17 20:16:51;;;;;;;148.27;77.18;;;6.70;99.90;;;;;;4950580;29;20111;-86
2022/03/17 20:19:54;;;;;;;152.10;79.25;;;6.70;99.90;;;;;;4963706;28;20111;-89
2022/03/17 20:22:45;;;;;;;162.52;82.45;;;6.60;99.90;;;;;;4962156;28;20146;-87
2022/03/17 20:25:38;;;;;;;152.77;81.25;;;6.60;99.90;;;;;;4974491;29;20059;-83
2022/03/17 20:28:26;;;;;;;165.27;85.82;;;6.60;99.90;;;;;;4973204;28;20048;-88